Schrunz, Liechtenstein
Current Conditions -  °F | °C
As of 6:20 PM on Thursday 30 Oct 2014 (Local Time) from LSZR Reporting Station
Clear Clear  
Wind Chill: 50°   Ceiling: Unl
Heat Index: 50°   Visibility: 6mi
Dew Point: 46°   Wind: 3mph
Humidity: 87%   Direction: 190°S
Pressure: 30.27"   Gusts: NA
Location:  47.08°N, 9.93°E
Report Text: LSZR 301620Z 19003KT CAVOK 10/08 Q1025 NOSIG RMK L
Loading
Personal Weather Stations






























Interactive Weather Map
Tropical Storm Tracking
New forecast layout! Learn more

10-Day Weather Forecast

Advertisements
Track Severe Weather on mobile